createdAt,value
2018-08-22T00:01:59.347Z,91.36
2018-08-22T00:04:28.069Z,91.33
2018-08-22T00:06:56.804Z,89.99
2018-08-22T00:09:25.578Z,90.25
2018-08-22T00:11:54.226Z,90.05
2018-08-22T00:14:23.768Z,89.79
2018-08-22T00:16:52.424Z,89.53
2018-08-22T00:19:21.156Z,89.29
2018-08-22T00:21:49.728Z,90.04
2018-08-22T00:24:18.352Z,90.10
2018-08-22T00:26:47.322Z,89.51
2018-08-22T00:29:16.181Z,88.69
2018-08-22T00:31:45.808Z,88.28
2018-08-22T00:34:14.388Z,89.93
2018-08-22T00:36:43.126Z,90.54
2018-08-22T00:39:12.940Z,90.67
2018-08-22T00:41:41.564Z,90.29
2018-08-22T00:44:10.292Z,91.30
2018-08-22T00:46:38.889Z,92.93
2018-08-22T00:49:07.633Z,92.08
2018-08-22T00:51:36.357Z,92.79
2018-08-22T00:54:04.957Z,92.63
2018-08-22T00:56:33.531Z,92.32
2018-08-22T00:59:02.196Z,92.47
2018-08-22T01:01:30.786Z,92.83
2018-08-22T01:03:59.886Z,93.57
2018-08-22T01:06:28.584Z,94.20
2018-08-22T01:08:58.185Z,93.27
2018-08-22T01:11:26.976Z,93.12
2018-08-22T01:13:55.946Z,94.02
2018-08-22T01:16:24.676Z,94.13
2018-08-22T01:18:53.597Z,94.14
2018-08-22T01:21:22.195Z,94.02
2018-08-22T01:23:51.097Z,93.75
2018-08-22T01:26:19.796Z,93.06
2018-08-22T01:28:48.358Z,91.63
2018-08-22T01:31:17.015Z,90.69
2018-08-22T01:33:45.623Z,91.67
2018-08-22T01:36:14.449Z,92.87
2018-08-22T01:38:44.338Z,93.69
2018-08-22T01:41:13.017Z,94.93
2018-08-22T01:43:41.796Z,94.87
2018-08-22T01:46:10.505Z,95.25
2018-08-22T01:48:40.000Z,96.17
2018-08-22T01:51:08.637Z,96.46
2018-08-22T01:53:37.205Z,96.43
2018-08-22T01:56:06.012Z,96.37
2018-08-22T01:58:34.653Z,95.66
2018-08-22T02:01:03.352Z,94.99
2018-08-22T02:03:32.232Z,93.79
2018-08-22T02:06:01.088Z,93.50
2018-08-22T02:08:29.717Z,93.11
2018-08-22T02:10:58.423Z,91.97
2018-08-22T02:13:27.121Z,90.95
2018-08-22T02:15:56.129Z,90.60
2018-08-22T02:18:24.709Z,90.41
2018-08-22T02:20:53.304Z,90.85
2018-08-22T02:23:22.492Z,91.10
2018-08-22T02:25:51.178Z,91.24
2018-08-22T02:28:19.842Z,90.99
2018-08-22T02:30:48.702Z,89.95
2018-08-22T02:33:17.452Z,90.68
2018-08-22T02:35:46.953Z,91.11
2018-08-22T02:38:20.696Z,91.70
2018-08-22T02:40:49.265Z,91.10
2018-08-22T02:43:18.600Z,89.93
2018-08-22T02:45:47.656Z,89.23
2018-08-22T02:48:16.784Z,89.20
2018-08-22T02:50:45.361Z,88.90
2018-08-22T02:53:14.036Z,89.65
2018-08-22T02:55:43.256Z,88.80
2018-08-22T02:58:12.960Z,90.16
2018-08-22T03:00:41.648Z,90.70
2018-08-22T03:03:10.256Z,91.37
2018-08-22T03:05:38.831Z,91.04
2018-08-22T03:08:07.665Z,90.57
2018-08-22T03:10:36.292Z,90.22
2018-08-22T03:13:04.892Z,89.42
2018-08-22T03:15:34.282Z,89.14
2018-08-22T03:18:03.575Z,89.27
2018-08-22T03:20:32.254Z,89.73
2018-08-22T03:23:00.934Z,90.06
2018-08-22T03:25:29.469Z,90.82
2018-08-22T03:27:58.197Z,91.39
2018-08-22T03:30:26.833Z,91.07
2018-08-22T03:32:56.589Z,91.83
2018-08-22T03:35:25.270Z,91.91
2018-08-22T03:37:53.873Z,91.17
2018-08-22T03:40:22.528Z,91.55
2018-08-22T03:42:51.090Z,92.12
2018-08-22T03:45:19.759Z,93.17
2018-08-22T03:47:48.320Z,95.08
2018-08-22T03:50:16.966Z,95.48
2018-08-22T03:52:45.669Z,94.87
2018-08-22T03:55:14.350Z,96.01
2018-08-22T03:57:42.973Z,96.44
2018-08-22T04:00:12.318Z,97.20
2018-08-22T04:02:41.370Z,96.31
2018-08-22T04:05:10.084Z,96.42
2018-08-22T04:07:38.669Z,96.04
2018-08-22T04:10:07.260Z,94.83
2018-08-22T04:12:36.108Z,93.94
2018-08-22T04:15:04.832Z,93.20
2018-08-22T04:17:37.603Z,93.00
2018-08-22T04:20:06.899Z,92.54
2018-08-22T04:22:37.325Z,92.53
2018-08-22T04:25:06.157Z,92.51
2018-08-22T04:27:34.814Z,92.72
2018-08-22T04:30:03.601Z,93.25
2018-08-22T04:32:32.211Z,92.56
2018-08-22T04:35:00.872Z,91.64
2018-08-22T04:37:29.588Z,91.52
2018-08-22T04:39:58.453Z,92.33
2018-08-22T04:42:27.630Z,92.27
2018-08-22T04:44:56.447Z,92.65
2018-08-22T04:47:25.133Z,92.66
2018-08-22T04:49:53.849Z,92.39
2018-08-22T04:52:22.544Z,92.28
2018-08-22T04:54:51.410Z,92.00
2018-08-22T04:57:21.390Z,92.11
2018-08-22T04:59:49.968Z,91.33
2018-08-22T05:02:18.567Z,91.28
2018-08-22T05:04:51.116Z,91.02
2018-08-22T05:07:19.715Z,89.98
2018-08-22T05:09:48.526Z,89.64
2018-08-22T05:12:17.277Z,89.65
2018-08-22T05:14:45.965Z,89.85
2018-08-22T05:17:14.788Z,88.96
2018-08-22T05:19:43.446Z,89.65
2018-08-22T05:22:12.376Z,89.80
2018-08-22T05:24:43.136Z,89.68
2018-08-22T05:27:11.698Z,88.99
2018-08-22T05:29:40.261Z,89.31
2018-08-22T05:32:08.978Z,89.25
2018-08-22T05:34:37.565Z,89.73
2018-08-22T05:37:06.314Z,88.75
2018-08-22T05:39:36.033Z,88.65
2018-08-22T05:42:04.780Z,87.76
2018-08-22T05:44:33.381Z,87.14
2018-08-22T05:47:02.117Z,87.33
2018-08-22T05:49:30.765Z,87.04
2018-08-22T05:51:59.419Z,86.76
2018-08-22T05:54:28.129Z,86.14
2018-08-22T05:56:56.905Z,86.27
2018-08-22T05:59:26.583Z,85.70
2018-08-22T06:01:55.189Z,85.08
2018-08-22T06:04:23.869Z,84.85
2018-08-22T06:06:52.615Z,82.98
2018-08-22T06:09:21.353Z,82.12
2018-08-22T06:11:49.975Z,81.82
2018-08-22T06:14:18.572Z,79.64
2018-08-22T06:16:47.328Z,78.85
2018-08-22T06:19:16.016Z,78.07
2018-08-22T06:21:44.676Z,77.67
2018-08-22T06:24:13.349Z,75.51
2018-08-22T06:26:41.995Z,74.73
2018-08-22T06:29:10.577Z,73.70
2018-08-22T06:31:39.302Z,73.19
2018-08-22T06:34:07.955Z,71.50
2018-08-22T06:36:36.557Z,70.99
2018-08-22T06:39:08.423Z,70.66
2018-08-22T06:41:37.005Z,70.31
2018-08-22T06:44:05.667Z,70.12
2018-08-22T06:46:34.285Z,69.63
2018-08-22T06:49:02.889Z,68.47
2018-08-22T06:51:31.450Z,68.79
2018-08-22T06:54:00.122Z,68.93
2018-08-22T06:56:28.717Z,66.46
2018-08-22T06:58:57.375Z,67.89
2018-08-22T07:01:26.015Z,67.88
2018-08-22T07:03:54.604Z,66.81
2018-08-22T07:06:23.185Z,66.04
2018-08-22T07:08:51.877Z,66.66
2018-08-22T07:11:20.545Z,66.06
2018-08-22T07:13:49.148Z,62.89
2018-08-22T07:16:17.753Z,63.43
2018-08-22T07:18:46.550Z,62.88
2018-08-22T07:21:15.150Z,64.51
2018-08-22T07:23:43.845Z,64.25
2018-08-22T07:26:12.498Z,62.56
2018-08-22T07:28:41.428Z,61.87
2018-08-22T07:31:09.988Z,62.50
2018-08-22T07:33:40.681Z,62.39
2018-08-22T07:36:09.381Z,61.80
2018-08-22T07:38:38.097Z,61.13
2018-08-22T07:41:06.688Z,60.75
2018-08-22T07:43:35.377Z,57.90
2018-08-22T07:46:04.060Z,57.51
2018-08-22T07:48:32.650Z,58.09
2018-08-22T07:51:01.383Z,56.14
2018-08-22T07:53:30.076Z,57.41
2018-08-22T07:55:58.698Z,56.65
2018-08-22T07:58:27.332Z,56.86
2018-08-22T08:00:56.228Z,56.28
2018-08-22T08:03:24.920Z,54.32
2018-08-22T08:05:53.553Z,54.28
2018-08-22T08:08:22.198Z,54.45
2018-08-22T08:10:51.499Z,53.84
2018-08-22T08:13:29.797Z,52.78
2018-08-22T08:15:59.405Z,53.49
2018-08-22T08:18:28.228Z,53.06
2018-08-22T08:20:56.772Z,53.03
2018-08-22T08:23:25.369Z,52.13
2018-08-22T08:25:53.970Z,51.06
2018-08-22T08:28:23.280Z,50.78
2018-08-22T08:30:52.266Z,51.44
2018-08-22T08:33:21.108Z,50.88
2018-08-22T08:35:49.749Z,49.90
2018-08-22T08:38:18.720Z,50.44
2018-08-22T08:40:48.140Z,50.03
2018-08-22T08:43:17.331Z,48.22
2018-08-22T08:45:46.024Z,47.78
2018-08-22T08:48:14.768Z,48.34
2018-08-22T08:50:43.494Z,48.30
2018-08-22T08:53:12.126Z,47.74
2018-08-22T08:55:41.838Z,47.15
2018-08-22T08:58:10.402Z,46.68
2018-08-22T09:00:39.014Z,46.89
2018-08-22T09:03:07.597Z,47.24
2018-08-22T09:05:36.180Z,47.43
2018-08-22T09:08:04.917Z,47.63
2018-08-22T09:10:33.733Z,47.44
2018-08-22T09:13:02.490Z,46.77
2018-08-22T09:15:31.145Z,47.57
2018-08-22T09:17:59.965Z,46.07
2018-08-22T09:20:28.963Z,45.85
2018-08-22T09:22:57.605Z,45.76
2018-08-22T09:25:26.306Z,44.67
2018-08-22T09:27:54.988Z,45.31
2018-08-22T09:30:23.907Z,44.50
2018-08-22T09:32:52.500Z,45.95
2018-08-22T09:35:21.264Z,44.99
2018-08-22T09:37:50.995Z,45.92
2018-08-22T09:40:19.670Z,46.02
2018-08-22T09:42:48.558Z,45.20
2018-08-22T09:45:17.163Z,45.78
2018-08-22T09:47:45.862Z,44.79
2018-08-22T09:50:14.633Z,44.70
2018-08-22T09:52:43.380Z,45.47
2018-08-22T09:55:12.651Z,44.06
2018-08-22T09:57:41.457Z,43.99
2018-08-22T10:00:15.352Z,44.35
2018-08-22T10:02:44.969Z,41.94
2018-08-22T10:05:13.560Z,42.92
2018-08-22T10:07:42.201Z,43.34
2018-08-22T10:10:11.018Z,42.53
2018-08-22T10:12:39.711Z,43.19
2018-08-22T10:15:08.384Z,42.51
2018-08-22T10:17:37.086Z,42.75
2018-08-22T10:20:06.381Z,42.74
2018-08-22T10:22:35.168Z,42.47
2018-08-22T10:25:03.917Z,41.37
2018-08-22T10:27:32.565Z,41.72
2018-08-22T10:30:01.282Z,40.74
2018-08-22T10:32:29.851Z,39.18
2018-08-22T10:34:58.620Z,39.34
2018-08-22T10:37:27.442Z,40.66
2018-08-22T10:39:56.257Z,39.88
2018-08-22T10:42:24.907Z,41.43
2018-08-22T10:44:54.660Z,40.71
2018-08-22T10:47:23.301Z,39.54
2018-08-22T10:49:53.047Z,38.62
2018-08-22T10:52:21.705Z,38.01
2018-08-22T10:54:50.247Z,38.37
2018-08-22T10:57:19.047Z,38.01
2018-08-22T10:59:48.296Z,38.50
2018-08-22T11:02:17.016Z,37.84
2018-08-22T11:04:45.665Z,37.35
2018-08-22T11:07:14.369Z,37.23
2018-08-22T11:09:43.055Z,36.30
2018-08-22T11:12:11.655Z,36.10
2018-08-22T11:14:40.426Z,36.87
2018-08-22T11:17:09.115Z,35.25
2018-08-22T11:19:37.811Z,35.50
2018-08-22T11:22:17.816Z,34.16
2018-08-22T11:24:57.745Z,33.89
2018-08-22T11:27:37.553Z,32.87
2018-08-22T11:30:17.416Z,31.71
2018-08-22T11:32:57.321Z,31.39
2018-08-22T11:35:24.949Z,29.56
2018-08-22T11:37:53.529Z,29.48
2018-08-22T11:40:22.656Z,29.37
2018-08-22T11:42:51.421Z,30.44
2018-08-22T11:45:20.921Z,28.53
2018-08-22T11:47:49.742Z,27.14
2018-08-22T11:50:18.309Z,27.24
2018-08-22T11:52:46.945Z,27.18
2018-08-22T11:55:15.646Z,26.97
2018-08-22T11:57:44.914Z,25.30
2018-08-22T12:00:14.500Z,24.29
2018-08-22T12:02:43.263Z,24.26
2018-08-22T12:05:11.961Z,24.41
2018-08-22T12:07:41.482Z,23.74
2018-08-22T12:10:10.171Z,23.61
2018-08-22T12:12:38.961Z,24.28
2018-08-22T12:15:07.733Z,23.03
2018-08-22T12:17:37.121Z,23.34
2018-08-22T12:20:07.233Z,23.57
2018-08-22T12:22:36.101Z,23.77
2018-08-22T12:25:04.865Z,23.32
2018-08-22T12:27:33.539Z,23.59
2018-08-22T12:30:02.273Z,23.00
2018-08-22T12:32:30.963Z,22.43
2018-08-22T12:35:00.460Z,23.17
2018-08-22T12:37:29.116Z,22.60
2018-08-22T12:39:57.964Z,22.35
2018-08-22T12:42:26.855Z,21.30
2018-08-22T12:44:55.505Z,22.10
2018-08-22T12:47:25.254Z,21.88
2018-08-22T12:49:53.975Z,22.22
2018-08-22T12:52:23.645Z,21.96
2018-08-22T12:54:52.323Z,21.24
2018-08-22T12:57:22.807Z,20.03
2018-08-22T12:59:51.504Z,21.52
2018-08-22T13:02:20.113Z,20.65
2018-08-22T13:04:48.781Z,21.84
2018-08-22T13:07:17.478Z,21.37
2018-08-22T13:09:46.680Z,21.62
2018-08-22T13:12:15.485Z,21.76
2018-08-22T13:14:44.100Z,20.60
2018-08-22T13:17:12.986Z,21.51
2018-08-22T13:19:41.581Z,21.46
2018-08-22T13:22:11.388Z,20.58
2018-08-22T13:24:40.135Z,20.62
2018-08-22T13:27:08.781Z,21.48
2018-08-22T13:29:37.376Z,21.96
2018-08-22T13:32:06.771Z,22.25
2018-08-22T13:34:36.377Z,21.99
2018-08-22T13:37:05.778Z,21.22
2018-08-22T13:39:34.484Z,21.41
2018-08-22T13:42:05.963Z,21.92
2018-08-22T13:44:34.713Z,20.75
2018-08-22T13:47:03.410Z,21.05
2018-08-22T13:49:32.082Z,20.03
2018-08-22T13:52:00.806Z,20.26
2018-08-22T13:54:29.686Z,20.79
2018-08-22T13:56:58.410Z,20.68
2018-08-22T13:59:27.050Z,20.67
2018-08-22T14:01:55.795Z,19.32
2018-08-22T14:04:25.386Z,20.17
2018-08-22T14:06:54.065Z,21.30
2018-08-22T14:09:22.796Z,20.67
2018-08-22T14:11:51.464Z,21.18
2018-08-22T14:14:20.246Z,21.03
2018-08-22T14:16:49.081Z,20.76
2018-08-22T14:19:17.736Z,20.46
2018-08-22T14:21:46.633Z,20.39
2018-08-22T14:24:15.335Z,19.91
2018-08-22T14:26:44.143Z,20.54
2018-08-22T14:29:12.705Z,19.09
2018-08-22T14:31:41.589Z,19.38
2018-08-22T14:34:11.545Z,19.60
2018-08-22T14:36:40.101Z,19.34
2018-08-22T14:39:11.095Z,18.84
2018-08-22T14:41:39.694Z,20.28
2018-08-22T14:44:08.492Z,20.23
2018-08-22T14:46:37.633Z,19.92
2018-08-22T14:49:06.533Z,20.26
2018-08-22T14:51:36.456Z,20.12
2018-08-22T14:54:05.165Z,19.61
2018-08-22T14:56:33.868Z,19.87
2018-08-22T14:59:02.689Z,20.18
2018-08-22T15:01:31.401Z,19.00
2018-08-22T15:04:00.060Z,19.48
2018-08-22T15:06:30.721Z,19.93
2018-08-22T15:09:05.728Z,19.98
2018-08-22T15:11:36.005Z,20.06
2018-08-22T15:14:05.773Z,20.68
2018-08-22T15:16:34.445Z,21.23
2018-08-22T15:19:03.077Z,20.96
2018-08-22T15:21:31.768Z,21.22
2018-08-22T15:24:00.501Z,22.20
2018-08-22T15:26:29.327Z,21.92
2018-08-22T15:28:58.082Z,21.08
2018-08-22T15:31:26.721Z,21.51
2018-08-22T15:33:55.674Z,20.70
2018-08-22T15:36:24.539Z,21.90
2018-08-22T15:38:55.383Z,21.61
2018-08-22T15:41:24.014Z,22.26
2018-08-22T15:43:53.306Z,23.04
2018-08-22T15:46:22.032Z,23.38
2018-08-22T15:48:52.084Z,23.77
2018-08-22T15:51:20.748Z,22.77
2018-08-22T15:54:14.128Z,23.18
2018-08-22T15:56:43.097Z,23.20
2018-08-22T15:59:12.594Z,23.24
2018-08-22T16:01:41.346Z,23.92
2018-08-22T16:04:10.558Z,24.25
2018-08-22T16:06:39.420Z,23.43
2018-08-22T16:09:16.113Z,23.64
2018-08-22T16:11:45.809Z,24.09
2018-08-22T16:14:15.079Z,24.69
2018-08-22T16:16:43.924Z,24.84
2018-08-22T16:19:13.286Z,24.99
2018-08-22T16:21:42.473Z,24.15
2018-08-22T16:24:11.395Z,25.40
2018-08-22T16:26:40.616Z,24.81
2018-08-22T16:29:09.377Z,25.63
2018-08-22T16:31:44.422Z,26.41
2018-08-22T16:34:13.763Z,26.31
2018-08-22T16:36:42.733Z,27.93
2018-08-22T16:39:11.732Z,27.90
2018-08-22T16:41:40.390Z,27.59
2018-08-22T16:44:10.241Z,27.97
2018-08-22T16:46:38.891Z,27.88
2018-08-22T16:49:08.993Z,29.42
2018-08-22T16:51:37.768Z,29.70
2018-08-22T16:54:10.306Z,30.54
2018-08-22T16:56:39.411Z,30.33
2018-08-22T16:59:10.293Z,31.52
2018-08-22T17:01:40.701Z,31.75
2018-08-22T17:04:09.324Z,32.18
2018-08-22T17:06:38.053Z,32.10
2018-08-22T17:09:09.421Z,32.86
2018-08-22T17:11:38.135Z,32.75
2018-08-22T17:14:06.779Z,33.92
2018-08-22T17:16:35.469Z,33.90
2018-08-22T17:19:04.313Z,35.12
2018-08-22T17:21:33.102Z,35.62
2018-08-22T17:24:01.910Z,36.34
2018-08-22T17:26:31.352Z,36.71
2018-08-22T17:29:00.874Z,36.99
2018-08-22T17:31:30.501Z,37.21
2018-08-22T17:34:01.542Z,37.72
2018-08-22T17:36:30.122Z,38.25
2018-08-22T17:38:59.890Z,38.85
2018-08-22T17:41:30.049Z,40.18
2018-08-22T17:44:04.305Z,39.54
2018-08-22T17:46:37.159Z,40.97
2018-08-22T17:49:05.973Z,41.32
2018-08-22T17:51:44.435Z,41.21
2018-08-22T17:54:13.133Z,42.43
2018-08-22T17:56:42.565Z,42.00
2018-08-22T17:59:11.373Z,44.03
2018-08-22T18:01:40.084Z,43.71
2018-08-22T18:04:08.824Z,44.71
2018-08-22T18:06:37.513Z,44.26
2018-08-22T18:09:06.517Z,45.13
2018-08-22T18:11:35.093Z,45.79
2018-08-22T18:14:03.826Z,46.29
2018-08-22T18:16:32.481Z,46.82
2018-08-22T18:19:02.106Z,46.81
2018-08-22T18:21:38.883Z,47.33
2018-08-22T18:24:08.593Z,47.17
2018-08-22T18:26:37.254Z,47.70
2018-08-22T18:29:05.936Z,47.49
2018-08-22T18:31:35.835Z,48.08
2018-08-22T18:34:05.029Z,48.12
2018-08-22T18:36:33.670Z,48.62
2018-08-22T18:39:07.044Z,48.92
2018-08-22T18:41:35.980Z,50.02
2018-08-22T18:44:04.776Z,49.60
2018-08-22T18:46:33.501Z,51.03
2018-08-22T18:49:02.880Z,50.79
2018-08-22T18:51:33.753Z,51.81
2018-08-22T18:54:04.173Z,51.42
2018-08-22T18:56:32.784Z,51.14
2018-08-22T18:59:12.552Z,52.05
2018-08-22T19:01:41.492Z,52.15
2018-08-22T19:04:10.296Z,52.15
2018-08-22T19:06:39.090Z,52.16
2018-08-22T19:09:08.168Z,52.87
2018-08-22T19:11:36.831Z,53.10
2018-08-22T19:14:06.591Z,53.11
2018-08-22T19:16:35.398Z,53.98
2018-08-22T19:19:04.250Z,55.02
2018-08-22T19:21:33.033Z,53.98
2018-08-22T19:24:05.617Z,54.64
2018-08-22T19:26:34.403Z,54.46
2018-08-22T19:29:05.365Z,55.29
2018-08-22T19:31:34.305Z,55.70
2018-08-22T19:34:03.025Z,55.17
2018-08-22T19:36:31.749Z,55.86
2018-08-22T19:39:00.480Z,56.11
2018-08-22T19:41:34.144Z,55.56
2018-08-22T19:44:04.061Z,55.53
2018-08-22T19:46:32.793Z,55.73
2018-08-22T19:49:01.835Z,56.05
2018-08-22T19:51:30.487Z,56.03
2018-08-22T19:54:04.731Z,56.10
2018-08-22T19:56:33.637Z,56.25
2018-08-22T19:59:02.921Z,55.88
2018-08-22T20:01:33.396Z,56.64
2018-08-22T20:04:01.990Z,56.60
2018-08-22T20:06:31.650Z,56.29
2018-08-22T20:09:01.091Z,55.97
2018-08-22T20:11:32.049Z,56.59
2018-08-22T20:14:02.494Z,55.89
2018-08-22T20:16:31.237Z,55.99
2018-08-22T20:19:01.964Z,56.68
2018-08-22T20:21:32.812Z,55.98
2018-08-22T20:24:02.361Z,56.60
2018-08-22T20:26:31.633Z,55.76
2018-08-22T20:29:01.686Z,56.53
2018-08-22T20:31:30.599Z,55.97
2018-08-22T20:34:21.159Z,55.94
2018-08-22T20:36:50.437Z,56.32
2018-08-22T20:39:19.329Z,55.99
2018-08-22T20:41:49.627Z,56.19
2018-08-22T20:44:20.850Z,56.03
2018-08-22T20:46:50.009Z,55.73
2018-08-22T20:49:19.732Z,56.11
2018-08-22T20:51:48.733Z,55.78
2018-08-22T20:54:22.596Z,55.74
2018-08-22T20:56:56.483Z,55.78
2018-08-22T20:59:25.264Z,56.21
2018-08-22T21:01:56.345Z,56.47
2018-08-22T21:04:25.117Z,57.07
2018-08-22T21:06:53.754Z,56.80
2018-08-22T21:09:22.354Z,56.42
2018-08-22T21:11:51.614Z,56.82
2018-08-22T21:14:20.303Z,57.33
2018-08-22T21:16:49.265Z,57.08
2018-08-22T21:19:18.005Z,57.70
2018-08-22T21:21:46.612Z,57.15
2018-08-22T21:24:15.304Z,56.91
2018-08-22T21:26:46.132Z,56.86
2018-08-22T21:29:14.997Z,57.16
2018-08-22T21:31:43.762Z,58.05
2018-08-22T21:34:17.541Z,56.91
2018-08-22T21:36:46.733Z,57.06
2018-08-22T21:39:20.597Z,57.24
2018-08-22T21:41:50.695Z,57.51
2018-08-22T21:44:20.649Z,57.04
2018-08-22T21:47:11.481Z,57.46
2018-08-22T21:49:40.237Z,57.32
2018-08-22T21:52:08.873Z,57.80
2018-08-22T21:54:38.107Z,57.32
2018-08-22T21:57:06.785Z,58.39
2018-08-22T21:59:35.460Z,57.84
2018-08-22T22:02:11.094Z,58.02
2018-08-22T22:04:41.098Z,58.72
2018-08-22T22:07:10.973Z,58.96
2018-08-22T22:09:40.424Z,58.89
2018-08-22T22:12:14.249Z,59.40
2018-08-22T22:14:44.440Z,59.33
2018-08-22T22:17:13.193Z,59.73
2018-08-22T22:19:41.779Z,60.92
2018-08-22T22:22:10.326Z,61.22
2018-08-22T22:24:49.486Z,61.51
2018-08-22T22:27:18.168Z,62.18
2018-08-22T22:29:47.002Z,61.89
2018-08-22T22:32:15.745Z,62.16
2018-08-22T22:34:44.337Z,62.65
2018-08-22T22:37:13.337Z,62.54
2018-08-22T22:39:43.041Z,63.32
2018-08-22T22:42:17.391Z,63.07
2018-08-22T22:44:50.259Z,63.29
2018-08-22T22:47:24.295Z,63.77
2018-08-22T22:49:53.258Z,63.98
2018-08-22T22:52:30.230Z,64.34
2018-08-22T22:55:04.454Z,65.00
2018-08-22T22:57:34.799Z,65.40
2018-08-22T23:00:04.405Z,65.80
2018-08-22T23:02:33.791Z,65.86
2018-08-22T23:05:02.785Z,66.31
2018-08-22T23:07:39.501Z,66.85
2018-08-22T23:10:12.065Z,68.08
2018-08-22T23:12:43.051Z,67.76
2018-08-22T23:15:14.781Z,67.63
2018-08-22T23:17:43.929Z,67.42
2018-08-22T23:20:45.216Z,68.67
2018-08-22T23:23:26.885Z,68.91
2018-08-22T23:25:58.701Z,67.98
2018-08-22T23:28:27.410Z,68.44
2018-08-22T23:30:55.989Z,68.93
2018-08-22T23:33:24.749Z,68.56
2018-08-22T23:35:54.506Z,68.86
2018-08-22T23:38:28.458Z,68.93
2018-08-22T23:40:57.350Z,68.40
2018-08-22T23:43:26.477Z,69.54
2018-08-22T23:45:57.986Z,69.81
2018-08-22T23:48:31.708Z,69.84
2018-08-22T23:51:03.817Z,70.02
2018-08-22T23:53:38.467Z,70.74
2018-08-22T23:56:16.483Z,71.20
2018-08-22T23:58:46.133Z,71.06
